sensor_id;sensor_type;location;lat;lon;timestamp;P1;durP1;ratioP1;P2;durP2;ratioP2
15082;SDS011;7640;53.116;6.878;2023-12-22T00:01:48;14.33;;;3.47;;
15082;SDS011;7640;53.116;6.878;2023-12-22T00:04:18;20.97;;;4.27;;
15082;SDS011;7640;53.116;6.878;2023-12-22T00:06:47;13.40;;;3.67;;
15082;SDS011;7640;53.116;6.878;2023-12-22T00:09:18;21.93;;;3.73;;
15082;SDS011;7640;53.116;6.878;2023-12-22T00:11:47;24.13;;;4.80;;
15082;SDS011;7640;53.116;6.878;2023-12-22T00:14:20;19.73;;;4.80;;
15082;SDS011;7640;53.116;6.878;2023-12-22T00:16:52;16.80;;;3.60;;
15082;SDS011;7640;53.116;6.878;2023-12-22T00:19:21;18.43;;;3.63;;
15082;SDS011;7640;53.116;6.878;2023-12-22T00:21:52;28.17;;;4.47;;
15082;SDS011;7640;53.116;6.878;2023-12-22T00:24:25;16.80;;;3.97;;
15082;SDS011;7640;53.116;6.878;2023-12-22T00:26:58;19.50;;;3.97;;
15082;SDS011;7640;53.116;6.878;2023-12-22T00:29:36;17.73;;;3.43;;
15082;SDS011;7640;53.116;6.878;2023-12-22T00:32:10;16.03;;;3.27;;
15082;SDS011;7640;53.116;6.878;2023-12-22T00:34:44;15.00;;;3.47;;
15082;SDS011;7640;53.116;6.878;2023-12-22T00:37:15;13.37;;;3.33;;
15082;SDS011;7640;53.116;6.878;2023-12-22T00:39:48;12.33;;;2.70;;
15082;SDS011;7640;53.116;6.878;2023-12-22T00:42:20;14.63;;;3.03;;
15082;SDS011;7640;53.116;6.878;2023-12-22T00:44:53;17.93;;;3.57;;
15082;SDS011;7640;53.116;6.878;2023-12-22T00:47:25;14.60;;;2.97;;
15082;SDS011;7640;53.116;6.878;2023-12-22T00:49:58;16.63;;;2.80;;
15082;SDS011;7640;53.116;6.878;2023-12-22T00:52:29;23.10;;;3.77;;
15082;SDS011;7640;53.116;6.878;2023-12-22T00:55:06;19.53;;;3.23;;
15082;SDS011;7640;53.116;6.878;2023-12-22T00:57:38;13.83;;;3.00;;
15082;SDS011;7640;53.116;6.878;2023-12-22T01:00:09;11.57;;;2.33;;
15082;SDS011;7640;53.116;6.878;2023-12-22T01:02:41;9.77;;;2.00;;
15082;SDS011;7640;53.116;6.878;2023-12-22T01:05:15;9.93;;;1.80;;
15082;SDS011;7640;53.116;6.878;2023-12-22T01:07:52;7.73;;;1.70;;
15082;SDS011;7640;53.116;6.878;2023-12-22T01:10:23;9.87;;;2.23;;
15082;SDS011;7640;53.116;6.878;2023-12-22T01:12:55;14.30;;;3.80;;
15082;SDS011;7640;53.116;6.878;2023-12-22T01:15:25;13.57;;;2.73;;
15082;SDS011;7640;53.116;6.878;2023-12-22T01:17:56;13.10;;;2.37;;
15082;SDS011;7640;53.116;6.878;2023-12-22T01:20:28;13.83;;;2.43;;
15082;SDS011;7640;53.116;6.878;2023-12-22T01:23:01;13.03;;;2.73;;
15082;SDS011;7640;53.116;6.878;2023-12-22T01:25:37;11.53;;;2.90;;
15082;SDS011;7640;53.116;6.878;2023-12-22T01:28:08;13.03;;;2.60;;
15082;SDS011;7640;53.116;6.878;2023-12-22T01:30:40;12.53;;;3.10;;
15082;SDS011;7640;53.116;6.878;2023-12-22T01:33:13;16.30;;;3.17;;
15082;SDS011;7640;53.116;6.878;2023-12-22T01:35:48;15.73;;;3.60;;
15082;SDS011;7640;53.116;6.878;2023-12-22T01:38:18;16.17;;;3.33;;
15082;SDS011;7640;53.116;6.878;2023-12-22T01:40:53;16.97;;;4.23;;
15082;SDS011;7640;53.116;6.878;2023-12-22T01:43:23;23.53;;;4.20;;
15082;SDS011;7640;53.116;6.878;2023-12-22T01:45:56;23.20;;;4.27;;
15082;SDS011;7640;53.116;6.878;2023-12-22T01:48:28;19.20;;;3.10;;
15082;SDS011;7640;53.116;6.878;2023-12-22T01:50:59;13.60;;;3.30;;
15082;SDS011;7640;53.116;6.878;2023-12-22T01:53:30;21.83;;;4.03;;
15082;SDS011;7640;53.116;6.878;2023-12-22T01:56:05;21.37;;;4.50;;
15082;SDS011;7640;53.116;6.878;2023-12-22T01:58:39;23.10;;;4.93;;
15082;SDS011;7640;53.116;6.878;2023-12-22T02:01:09;23.03;;;4.50;;
15082;SDS011;7640;53.116;6.878;2023-12-22T02:03:40;16.23;;;3.70;;
15082;SDS011;7640;53.116;6.878;2023-12-22T02:06:10;18.27;;;3.57;;
15082;SDS011;7640;53.116;6.878;2023-12-22T02:08:47;15.83;;;3.63;;
15082;SDS011;7640;53.116;6.878;2023-12-22T02:11:20;10.37;;;2.53;;
15082;SDS011;7640;53.116;6.878;2023-12-22T02:13:50;10.60;;;2.20;;
15082;SDS011;7640;53.116;6.878;2023-12-22T02:16:20;10.93;;;2.90;;
15082;SDS011;7640;53.116;6.878;2023-12-22T02:19:00;14.67;;;3.70;;
15082;SDS011;7640;53.116;6.878;2023-12-22T02:24:36;24.97;;;4.47;;
15082;SDS011;7640;53.116;6.878;2023-12-22T02:27:09;19.23;;;3.97;;
15082;SDS011;7640;53.116;6.878;2023-12-22T02:29:46;13.17;;;2.50;;
15082;SDS011;7640;53.116;6.878;2023-12-22T02:32:24;17.47;;;2.70;;
15082;SDS011;7640;53.116;6.878;2023-12-22T02:35:02;8.07;;;2.37;;
15082;SDS011;7640;53.116;6.878;2023-12-22T02:37:38;13.67;;;3.03;;
15082;SDS011;7640;53.116;6.878;2023-12-22T02:40:13;16.27;;;3.00;;
15082;SDS011;7640;53.116;6.878;2023-12-22T02:42:44;15.97;;;2.70;;
15082;SDS011;7640;53.116;6.878;2023-12-22T02:45:14;14.27;;;2.30;;
15082;SDS011;7640;53.116;6.878;2023-12-22T02:47:49;13.20;;;2.73;;
15082;SDS011;7640;53.116;6.878;2023-12-22T02:50:19;15.00;;;2.53;;
15082;SDS011;7640;53.116;6.878;2023-12-22T02:52:49;10.63;;;2.43;;
15082;SDS011;7640;53.116;6.878;2023-12-22T02:55:21;13.97;;;2.70;;
15082;SDS011;7640;53.116;6.878;2023-12-22T02:57:50;16.23;;;2.80;;
15082;SDS011;7640;53.116;6.878;2023-12-22T03:00:22;17.97;;;3.23;;
15082;SDS011;7640;53.116;6.878;2023-12-22T03:02:52;14.10;;;2.87;;
15082;SDS011;7640;53.116;6.878;2023-12-22T03:05:23;17.07;;;3.43;;
15082;SDS011;7640;53.116;6.878;2023-12-22T03:07:55;16.53;;;3.83;;
15082;SDS011;7640;53.116;6.878;2023-12-22T03:10:27;19.00;;;3.10;;
15082;SDS011;7640;53.116;6.878;2023-12-22T03:13:01;17.03;;;3.93;;
15082;SDS011;7640;53.116;6.878;2023-12-22T03:15:31;19.00;;;3.27;;
15082;SDS011;7640;53.116;6.878;2023-12-22T03:18:01;12.50;;;3.13;;
15082;SDS011;7640;53.116;6.878;2023-12-22T03:20:29;15.07;;;3.00;;
15082;SDS011;7640;53.116;6.878;2023-12-22T03:23:00;15.50;;;2.27;;
15082;SDS011;7640;53.116;6.878;2023-12-22T03:25:33;6.87;;;2.60;;
15082;SDS011;7640;53.116;6.878;2023-12-22T03:28:05;14.07;;;2.30;;
15082;SDS011;7640;53.116;6.878;2023-12-22T03:30:35;11.50;;;2.07;;
15082;SDS011;7640;53.116;6.878;2023-12-22T03:33:07;9.10;;;1.73;;
15082;SDS011;7640;53.116;6.878;2023-12-22T03:35:37;9.53;;;2.40;;
15082;SDS011;7640;53.116;6.878;2023-12-22T03:38:07;12.27;;;1.90;;
15082;SDS011;7640;53.116;6.878;2023-12-22T03:40:39;9.97;;;1.77;;
15082;SDS011;7640;53.116;6.878;2023-12-22T03:43:09;13.37;;;2.20;;
15082;SDS011;7640;53.116;6.878;2023-12-22T03:45:39;11.27;;;2.00;;
15082;SDS011;7640;53.116;6.878;2023-12-22T03:48:08;10.33;;;2.27;;
15082;SDS011;7640;53.116;6.878;2023-12-22T03:50:38;13.07;;;2.60;;
15082;SDS011;7640;53.116;6.878;2023-12-22T03:53:14;10.73;;;3.13;;
15082;SDS011;7640;53.116;6.878;2023-12-22T03:55:47;9.43;;;3.03;;
15082;SDS011;7640;53.116;6.878;2023-12-22T03:58:19;16.57;;;3.00;;
15082;SDS011;7640;53.116;6.878;2023-12-22T04:00:48;16.37;;;2.77;;
15082;SDS011;7640;53.116;6.878;2023-12-22T04:03:18;15.00;;;2.87;;
15082;SDS011;7640;53.116;6.878;2023-12-22T04:05:48;17.27;;;2.93;;
15082;SDS011;7640;53.116;6.878;2023-12-22T04:08:19;14.47;;;2.40;;
15082;SDS011;7640;53.116;6.878;2023-12-22T04:10:57;16.50;;;2.20;;
15082;SDS011;7640;53.116;6.878;2023-12-22T04:13:26;14.90;;;2.23;;
15082;SDS011;7640;53.116;6.878;2023-12-22T04:15:58;5.40;;;1.60;;
15082;SDS011;7640;53.116;6.878;2023-12-22T04:18:31;9.77;;;2.00;;
15082;SDS011;7640;53.116;6.878;2023-12-22T04:21:02;10.50;;;2.20;;
15082;SDS011;7640;53.116;6.878;2023-12-22T04:23:32;15.07;;;4.43;;
15082;SDS011;7640;53.116;6.878;2023-12-22T04:26:07;11.77;;;2.30;;
15082;SDS011;7640;53.116;6.878;2023-12-22T04:28:40;9.23;;;2.43;;
15082;SDS011;7640;53.116;6.878;2023-12-22T04:31:09;16.03;;;2.87;;
15082;SDS011;7640;53.116;6.878;2023-12-22T04:33:40;15.60;;;3.30;;
15082;SDS011;7640;53.116;6.878;2023-12-22T04:36:10;17.77;;;4.37;;
15082;SDS011;7640;53.116;6.878;2023-12-22T04:38:40;17.13;;;3.77;;
15082;SDS011;7640;53.116;6.878;2023-12-22T04:41:14;18.17;;;3.07;;
15082;SDS011;7640;53.116;6.878;2023-12-22T04:43:44;23.20;;;4.30;;
15082;SDS011;7640;53.116;6.878;2023-12-22T04:46:14;18.67;;;3.40;;
15082;SDS011;7640;53.116;6.878;2023-12-22T04:48:46;24.70;;;4.83;;
15082;SDS011;7640;53.116;6.878;2023-12-22T04:51:16;20.20;;;4.37;;
15082;SDS011;7640;53.116;6.878;2023-12-22T04:53:46;15.67;;;3.50;;
15082;SDS011;7640;53.116;6.878;2023-12-22T04:56:23;22.57;;;3.70;;
15082;SDS011;7640;53.116;6.878;2023-12-22T04:58:54;15.80;;;3.17;;
15082;SDS011;7640;53.116;6.878;2023-12-22T05:01:23;22.40;;;3.90;;
15082;SDS011;7640;53.116;6.878;2023-12-22T05:03:53;16.30;;;3.57;;
15082;SDS011;7640;53.116;6.878;2023-12-22T05:06:22;18.53;;;3.70;;
15082;SDS011;7640;53.116;6.878;2023-12-22T05:08:53;21.33;;;3.60;;
15082;SDS011;7640;53.116;6.878;2023-12-22T05:11:25;19.83;;;3.97;;
15082;SDS011;7640;53.116;6.878;2023-12-22T05:13:55;15.53;;;3.53;;
15082;SDS011;7640;53.116;6.878;2023-12-22T05:16:27;15.77;;;3.67;;
15082;SDS011;7640;53.116;6.878;2023-12-22T05:18:59;17.07;;;3.87;;
15082;SDS011;7640;53.116;6.878;2023-12-22T05:21:29;14.97;;;3.80;;
15082;SDS011;7640;53.116;6.878;2023-12-22T05:23:59;11.83;;;2.70;;
15082;SDS011;7640;53.116;6.878;2023-12-22T05:26:32;22.10;;;3.50;;
15082;SDS011;7640;53.116;6.878;2023-12-22T05:29:07;12.00;;;3.00;;
15082;SDS011;7640;53.116;6.878;2023-12-22T05:31:40;14.83;;;3.20;;
15082;SDS011;7640;53.116;6.878;2023-12-22T05:34:16;14.23;;;3.33;;
15082;SDS011;7640;53.116;6.878;2023-12-22T05:36:57;17.63;;;3.70;;
15082;SDS011;7640;53.116;6.878;2023-12-22T05:39:35;17.97;;;3.67;;
15082;SDS011;7640;53.116;6.878;2023-12-22T05:42:13;15.90;;;2.70;;
15082;SDS011;7640;53.116;6.878;2023-12-22T05:44:45;15.13;;;3.27;;
15082;SDS011;7640;53.116;6.878;2023-12-22T05:47:22;16.47;;;3.47;;
15082;SDS011;7640;53.116;6.878;2023-12-22T05:49:53;12.30;;;3.37;;
15082;SDS011;7640;53.116;6.878;2023-12-22T05:52:25;20.90;;;4.07;;
15082;SDS011;7640;53.116;6.878;2023-12-22T05:54:55;20.03;;;3.40;;
15082;SDS011;7640;53.116;6.878;2023-12-22T05:57:28;12.23;;;3.77;;
15082;SDS011;7640;53.116;6.878;2023-12-22T05:59:57;18.60;;;4.20;;
15082;SDS011;7640;53.116;6.878;2023-12-22T06:02:27;21.80;;;3.80;;
15082;SDS011;7640;53.116;6.878;2023-12-22T06:04:58;17.03;;;3.73;;
15082;SDS011;7640;53.116;6.878;2023-12-22T06:07:29;13.37;;;3.70;;
15082;SDS011;7640;53.116;6.878;2023-12-22T06:10:01;16.43;;;3.83;;
15082;SDS011;7640;53.116;6.878;2023-12-22T06:12:33;18.80;;;3.80;;
15082;SDS011;7640;53.116;6.878;2023-12-22T06:15:04;16.60;;;3.50;;
15082;SDS011;7640;53.116;6.878;2023-12-22T06:17:35;17.80;;;4.17;;
15082;SDS011;7640;53.116;6.878;2023-12-22T06:20:06;15.13;;;3.23;;
15082;SDS011;7640;53.116;6.878;2023-12-22T06:22:41;17.80;;;3.07;;
15082;SDS011;7640;53.116;6.878;2023-12-22T06:25:10;21.50;;;4.50;;
15082;SDS011;7640;53.116;6.878;2023-12-22T06:27:42;18.27;;;4.27;;
15082;SDS011;7640;53.116;6.878;2023-12-22T06:30:18;14.07;;;3.23;;
15082;SDS011;7640;53.116;6.878;2023-12-22T06:32:49;14.80;;;3.47;;
15082;SDS011;7640;53.116;6.878;2023-12-22T06:35:20;17.23;;;3.77;;
15082;SDS011;7640;53.116;6.878;2023-12-22T06:37:52;19.83;;;3.43;;
15082;SDS011;7640;53.116;6.878;2023-12-22T06:40:24;18.57;;;3.87;;
15082;SDS011;7640;53.116;6.878;2023-12-22T06:42:56;19.37;;;4.30;;
15082;SDS011;7640;53.116;6.878;2023-12-22T06:45:29;21.33;;;4.10;;
15082;SDS011;7640;53.116;6.878;2023-12-22T06:48:00;21.77;;;4.53;;
15082;SDS011;7640;53.116;6.878;2023-12-22T06:50:30;22.60;;;3.83;;
15082;SDS011;7640;53.116;6.878;2023-12-22T06:53:07;21.37;;;3.53;;
15082;SDS011;7640;53.116;6.878;2023-12-22T06:55:51;17.43;;;3.90;;
15082;SDS011;7640;53.116;6.878;2023-12-22T06:58:24;9.03;;;2.43;;
15082;SDS011;7640;53.116;6.878;2023-12-22T07:00:53;9.50;;;2.07;;
15082;SDS011;7640;53.116;6.878;2023-12-22T07:03:24;8.77;;;2.47;;
15082;SDS011;7640;53.116;6.878;2023-12-22T07:05:55;9.33;;;1.83;;
15082;SDS011;7640;53.116;6.878;2023-12-22T07:08:25;7.87;;;2.07;;
15082;SDS011;7640;53.116;6.878;2023-12-22T07:10:55;14.90;;;3.27;;
15082;SDS011;7640;53.116;6.878;2023-12-22T07:13:27;18.70;;;3.40;;
15082;SDS011;7640;53.116;6.878;2023-12-22T07:15:57;18.43;;;3.67;;
15082;SDS011;7640;53.116;6.878;2023-12-22T07:18:28;13.93;;;2.83;;
15082;SDS011;7640;53.116;6.878;2023-12-22T07:21:01;13.23;;;2.57;;
15082;SDS011;7640;53.116;6.878;2023-12-22T07:23:30;12.97;;;2.47;;
15082;SDS011;7640;53.116;6.878;2023-12-22T07:26:01;20.17;;;4.23;;
15082;SDS011;7640;53.116;6.878;2023-12-22T07:28:33;17.40;;;3.40;;
15082;SDS011;7640;53.116;6.878;2023-12-22T07:31:04;14.97;;;2.60;;
15082;SDS011;7640;53.116;6.878;2023-12-22T07:33:34;12.00;;;3.30;;
15082;SDS011;7640;53.116;6.878;2023-12-22T07:36:04;16.03;;;3.30;;
15082;SDS011;7640;53.116;6.878;2023-12-22T07:38:35;19.80;;;3.77;;
15082;SDS011;7640;53.116;6.878;2023-12-22T07:41:09;21.73;;;3.63;;
15082;SDS011;7640;53.116;6.878;2023-12-22T07:43:41;13.57;;;2.90;;
15082;SDS011;7640;53.116;6.878;2023-12-22T07:46:18;16.73;;;3.60;;
15082;SDS011;7640;53.116;6.878;2023-12-22T07:48:52;19.67;;;3.73;;
15082;SDS011;7640;53.116;6.878;2023-12-22T07:51:25;26.47;;;3.27;;
15082;SDS011;7640;53.116;6.878;2023-12-22T07:53:54;13.27;;;2.87;;
15082;SDS011;7640;53.116;6.878;2023-12-22T07:56:23;16.00;;;3.40;;
15082;SDS011;7640;53.116;6.878;2023-12-22T07:58:55;16.43;;;3.77;;
15082;SDS011;7640;53.116;6.878;2023-12-22T08:01:45;17.07;;;3.23;;
15082;SDS011;7640;53.116;6.878;2023-12-22T08:04:20;16.20;;;3.50;;
15082;SDS011;7640;53.116;6.878;2023-12-22T08:06:51;19.90;;;3.57;;
15082;SDS011;7640;53.116;6.878;2023-12-22T08:09:21;20.90;;;3.77;;
15082;SDS011;7640;53.116;6.878;2023-12-22T08:11:50;21.40;;;4.00;;
15082;SDS011;7640;53.116;6.878;2023-12-22T08:14:25;28.30;;;4.50;;
15082;SDS011;7640;53.116;6.878;2023-12-22T08:17:10;21.10;;;3.93;;
15082;SDS011;7640;53.116;6.878;2023-12-22T08:19:41;23.97;;;5.07;;
15082;SDS011;7640;53.116;6.878;2023-12-22T08:22:14;21.87;;;4.13;;
15082;SDS011;7640;53.116;6.878;2023-12-22T08:24:45;23.20;;;4.33;;
15082;SDS011;7640;53.116;6.878;2023-12-22T08:27:15;23.70;;;5.00;;
15082;SDS011;7640;53.116;6.878;2023-12-22T08:29:55;23.17;;;3.97;;
15082;SDS011;7640;53.116;6.878;2023-12-22T08:32:25;17.90;;;3.13;;
15082;SDS011;7640;53.116;6.878;2023-12-22T08:35:04;22.73;;;4.03;;
15082;SDS011;7640;53.116;6.878;2023-12-22T08:37:37;27.00;;;4.13;;
15082;SDS011;7640;53.116;6.878;2023-12-22T08:40:08;22.83;;;4.30;;
15082;SDS011;7640;53.116;6.878;2023-12-22T08:42:39;20.50;;;3.90;;
15082;SDS011;7640;53.116;6.878;2023-12-22T08:45:11;21.07;;;3.57;;
15082;SDS011;7640;53.116;6.878;2023-12-22T08:47:41;27.20;;;4.00;;
15082;SDS011;7640;53.116;6.878;2023-12-22T08:50:13;15.60;;;3.80;;
15082;SDS011;7640;53.116;6.878;2023-12-22T08:52:44;30.53;;;4.43;;
15082;SDS011;7640;53.116;6.878;2023-12-22T08:55:14;24.13;;;4.47;;
15082;SDS011;7640;53.116;6.878;2023-12-22T08:57:45;18.23;;;3.73;;
15082;SDS011;7640;53.116;6.878;2023-12-22T09:00:27;16.33;;;3.60;;
15082;SDS011;7640;53.116;6.878;2023-12-22T09:02:56;20.90;;;3.40;;
15082;SDS011;7640;53.116;6.878;2023-12-22T09:05:26;21.40;;;3.77;;
15082;SDS011;7640;53.116;6.878;2023-12-22T09:07:56;21.33;;;3.30;;
15082;SDS011;7640;53.116;6.878;2023-12-22T09:10:27;17.37;;;2.97;;
15082;SDS011;7640;53.116;6.878;2023-12-22T09:12:57;14.63;;;2.70;;
15082;SDS011;7640;53.116;6.878;2023-12-22T09:15:30;12.83;;;2.57;;
15082;SDS011;7640;53.116;6.878;2023-12-22T09:18:00;16.13;;;2.80;;
15082;SDS011;7640;53.116;6.878;2023-12-22T09:20:31;13.57;;;3.37;;
15082;SDS011;7640;53.116;6.878;2023-12-22T09:23:01;13.40;;;3.60;;
15082;SDS011;7640;53.116;6.878;2023-12-22T09:25:35;13.80;;;3.33;;
15082;SDS011;7640;53.116;6.878;2023-12-22T09:28:10;12.63;;;2.90;;
15082;SDS011;7640;53.116;6.878;2023-12-22T09:30:41;16.53;;;2.80;;
15082;SDS011;7640;53.116;6.878;2023-12-22T09:33:11;13.20;;;2.63;;
15082;SDS011;7640;53.116;6.878;2023-12-22T09:35:41;16.63;;;2.77;;
15082;SDS011;7640;53.116;6.878;2023-12-22T09:38:13;17.23;;;3.87;;
15082;SDS011;7640;53.116;6.878;2023-12-22T09:40:42;15.57;;;2.37;;
15082;SDS011;7640;53.116;6.878;2023-12-22T09:43:12;12.30;;;2.47;;
15082;SDS011;7640;53.116;6.878;2023-12-22T09:45:50;16.37;;;2.90;;
15082;SDS011;7640;53.116;6.878;2023-12-22T09:48:21;19.17;;;2.97;;
15082;SDS011;7640;53.116;6.878;2023-12-22T09:50:54;12.50;;;2.30;;
15082;SDS011;7640;53.116;6.878;2023-12-22T09:53:25;10.30;;;2.40;;
15082;SDS011;7640;53.116;6.878;2023-12-22T09:55:58;10.47;;;2.73;;
15082;SDS011;7640;53.116;6.878;2023-12-22T09:58:29;10.30;;;2.53;;
15082;SDS011;7640;53.116;6.878;2023-12-22T10:01:04;11.87;;;2.00;;
15082;SDS011;7640;53.116;6.878;2023-12-22T10:03:40;7.93;;;1.70;;
15082;SDS011;7640;53.116;6.878;2023-12-22T10:06:14;10.47;;;1.90;;
15082;SDS011;7640;53.116;6.878;2023-12-22T10:08:45;12.37;;;2.20;;
15082;SDS011;7640;53.116;6.878;2023-12-22T10:11:18;14.00;;;2.40;;
15082;SDS011;7640;53.116;6.878;2023-12-22T10:13:51;14.40;;;2.37;;
15082;SDS011;7640;53.116;6.878;2023-12-22T10:16:23;14.10;;;2.73;;
15082;SDS011;7640;53.116;6.878;2023-12-22T10:18:54;10.60;;;2.40;;
15082;SDS011;7640;53.116;6.878;2023-12-22T10:21:23;8.67;;;2.10;;
15082;SDS011;7640;53.116;6.878;2023-12-22T10:23:53;12.30;;;1.60;;
15082;SDS011;7640;53.116;6.878;2023-12-22T10:26:22;11.47;;;2.97;;
15082;SDS011;7640;53.116;6.878;2023-12-22T10:28:53;10.57;;;2.67;;
15082;SDS011;7640;53.116;6.878;2023-12-22T10:31:27;12.93;;;2.27;;
15082;SDS011;7640;53.116;6.878;2023-12-22T10:34:09;12.67;;;2.10;;
15082;SDS011;7640;53.116;6.878;2023-12-22T10:36:40;7.83;;;2.10;;
15082;SDS011;7640;53.116;6.878;2023-12-22T10:39:11;16.73;;;2.50;;
15082;SDS011;7640;53.116;6.878;2023-12-22T10:41:41;12.87;;;2.77;;
15082;SDS011;7640;53.116;6.878;2023-12-22T10:44:11;9.30;;;2.40;;
15082;SDS011;7640;53.116;6.878;2023-12-22T10:46:43;11.77;;;2.30;;
15082;SDS011;7640;53.116;6.878;2023-12-22T10:49:14;13.77;;;2.90;;
15082;SDS011;7640;53.116;6.878;2023-12-22T10:51:44;18.20;;;2.80;;
15082;SDS011;7640;53.116;6.878;2023-12-22T10:54:15;16.87;;;3.73;;
15082;SDS011;7640;53.116;6.878;2023-12-22T10:56:46;13.80;;;2.50;;
15082;SDS011;7640;53.116;6.878;2023-12-22T10:59:18;18.90;;;2.60;;
15082;SDS011;7640;53.116;6.878;2023-12-22T11:01:53;18.30;;;3.20;;
15082;SDS011;7640;53.116;6.878;2023-12-22T11:04:29;15.07;;;2.83;;
15082;SDS011;7640;53.116;6.878;2023-12-22T11:07:02;16.43;;;3.10;;
15082;SDS011;7640;53.116;6.878;2023-12-22T11:09:33;10.40;;;2.60;;
15082;SDS011;7640;53.116;6.878;2023-12-22T11:12:06;9.47;;;2.50;;
15082;SDS011;7640;53.116;6.878;2023-12-22T11:14:38;12.13;;;3.40;;
15082;SDS011;7640;53.116;6.878;2023-12-22T11:17:11;15.53;;;3.37;;
15082;SDS011;7640;53.116;6.878;2023-12-22T11:19:43;13.93;;;3.00;;
15082;SDS011;7640;53.116;6.878;2023-12-22T11:22:16;15.00;;;2.77;;
15082;SDS011;7640;53.116;6.878;2023-12-22T11:24:49;13.43;;;2.20;;
15082;SDS011;7640;53.116;6.878;2023-12-22T11:27:19;14.73;;;2.90;;
15082;SDS011;7640;53.116;6.878;2023-12-22T11:29:50;15.53;;;2.43;;
15082;SDS011;7640;53.116;6.878;2023-12-22T11:32:24;11.20;;;2.67;;
15082;SDS011;7640;53.116;6.878;2023-12-22T11:34:56;12.80;;;2.13;;
15082;SDS011;7640;53.116;6.878;2023-12-22T11:37:31;13.73;;;2.90;;
15082;SDS011;7640;53.116;6.878;2023-12-22T11:40:04;11.93;;;2.50;;
15082;SDS011;7640;53.116;6.878;2023-12-22T11:42:39;12.73;;;2.80;;
15082;SDS011;7640;53.116;6.878;2023-12-22T11:45:20;9.33;;;2.60;;
15082;SDS011;7640;53.116;6.878;2023-12-22T11:47:54;14.47;;;2.47;;
15082;SDS011;7640;53.116;6.878;2023-12-22T11:50:27;12.73;;;2.87;;
15082;SDS011;7640;53.116;6.878;2023-12-22T11:56:01;11.30;;;2.23;;
15082;SDS011;7640;53.116;6.878;2023-12-22T11:58:35;13.30;;;3.50;;
15082;SDS011;7640;53.116;6.878;2023-12-22T12:01:07;12.37;;;2.53;;
15082;SDS011;7640;53.116;6.878;2023-12-22T12:03:49;13.90;;;3.23;;
15082;SDS011;7640;53.116;6.878;2023-12-22T12:06:30;9.47;;;2.40;;
15082;SDS011;7640;53.116;6.878;2023-12-22T12:09:06;11.50;;;2.70;;
15082;SDS011;7640;53.116;6.878;2023-12-22T12:14:42;14.33;;;3.13;;
15082;SDS011;7640;53.116;6.878;2023-12-22T12:17:14;14.70;;;2.57;;
15082;SDS011;7640;53.116;6.878;2023-12-22T12:19:57;13.53;;;2.80;;
15082;SDS011;7640;53.116;6.878;2023-12-22T12:22:42;11.33;;;2.63;;
15082;SDS011;7640;53.116;6.878;2023-12-22T12:25:16;12.23;;;2.40;;
15082;SDS011;7640;53.116;6.878;2023-12-22T12:28:01;14.20;;;2.80;;
15082;SDS011;7640;53.116;6.878;2023-12-22T12:30:32;14.23;;;2.50;;
15082;SDS011;7640;53.116;6.878;2023-12-22T12:33:05;12.30;;;2.63;;
15082;SDS011;7640;53.116;6.878;2023-12-22T12:35:40;16.07;;;2.30;;
15082;SDS011;7640;53.116;6.878;2023-12-22T12:38:16;8.80;;;2.47;;
15082;SDS011;7640;53.116;6.878;2023-12-22T12:40:50;11.07;;;2.30;;
15082;SDS011;7640;53.116;6.878;2023-12-22T12:43:21;15.17;;;2.70;;
15082;SDS011;7640;53.116;6.878;2023-12-22T12:45:51;17.93;;;3.03;;
15082;SDS011;7640;53.116;6.878;2023-12-22T12:48:21;16.70;;;3.13;;
15082;SDS011;7640;53.116;6.878;2023-12-22T12:50:57;16.40;;;2.80;;
15082;SDS011;7640;53.116;6.878;2023-12-22T12:53:34;12.20;;;2.40;;
15082;SDS011;7640;53.116;6.878;2023-12-22T12:56:13;14.70;;;3.17;;
15082;SDS011;7640;53.116;6.878;2023-12-22T12:58:45;13.33;;;2.60;;
15082;SDS011;7640;53.116;6.878;2023-12-22T13:01:15;11.30;;;2.47;;
15082;SDS011;7640;53.116;6.878;2023-12-22T13:03:55;10.70;;;2.33;;
15082;SDS011;7640;53.116;6.878;2023-12-22T13:06:27;10.33;;;2.33;;
15082;SDS011;7640;53.116;6.878;2023-12-22T13:08:56;8.00;;;2.10;;
15082;SDS011;7640;53.116;6.878;2023-12-22T13:11:26;15.50;;;2.83;;
15082;SDS011;7640;53.116;6.878;2023-12-22T13:14:02;9.00;;;2.30;;
15082;SDS011;7640;53.116;6.878;2023-12-22T13:16:35;12.53;;;2.80;;
15082;SDS011;7640;53.116;6.878;2023-12-22T13:19:16;9.07;;;2.20;;
15082;SDS011;7640;53.116;6.878;2023-12-22T13:21:49;7.80;;;2.40;;
15082;SDS011;7640;53.116;6.878;2023-12-22T13:24:22;11.57;;;3.10;;
15082;SDS011;7640;53.116;6.878;2023-12-22T13:27:01;9.63;;;2.67;;
15082;SDS011;7640;53.116;6.878;2023-12-22T13:29:53;9.50;;;2.40;;
15082;SDS011;7640;53.116;6.878;2023-12-22T13:32:24;10.63;;;3.07;;
15082;SDS011;7640;53.116;6.878;2023-12-22T13:34:55;9.10;;;2.40;;
15082;SDS011;7640;53.116;6.878;2023-12-22T13:37:42;15.40;;;2.97;;
15082;SDS011;7640;53.116;6.878;2023-12-22T13:40:13;8.57;;;2.03;;
15082;SDS011;7640;53.116;6.878;2023-12-22T13:42:53;8.03;;;2.23;;
15082;SDS011;7640;53.116;6.878;2023-12-22T13:45:26;8.30;;;2.20;;
15082;SDS011;7640;53.116;6.878;2023-12-22T13:47:56;8.87;;;1.80;;
15082;SDS011;7640;53.116;6.878;2023-12-22T13:50:32;10.03;;;1.67;;
15082;SDS011;7640;53.116;6.878;2023-12-22T13:53:11;6.63;;;1.70;;
15082;SDS011;7640;53.116;6.878;2023-12-22T13:55:40;7.70;;;1.73;;
15082;SDS011;7640;53.116;6.878;2023-12-22T13:58:10;5.07;;;1.20;;
15082;SDS011;7640;53.116;6.878;2023-12-22T14:00:51;10.23;;;1.47;;
15082;SDS011;7640;53.116;6.878;2023-12-22T14:03:26;6.13;;;1.60;;
15082;SDS011;7640;53.116;6.878;2023-12-22T14:05:55;6.67;;;1.90;;
15082;SDS011;7640;53.116;6.878;2023-12-22T14:08:26;5.93;;;1.60;;
15082;SDS011;7640;53.116;6.878;2023-12-22T14:11:03;5.23;;;1.60;;
15082;SDS011;7640;53.116;6.878;2023-12-22T14:13:33;5.73;;;1.40;;
15082;SDS011;7640;53.116;6.878;2023-12-22T14:16:06;3.87;;;1.20;;
15082;SDS011;7640;53.116;6.878;2023-12-22T14:18:36;7.10;;;1.00;;
15082;SDS011;7640;53.116;6.878;2023-12-22T14:21:07;4.40;;;1.30;;
15082;SDS011;7640;53.116;6.878;2023-12-22T14:23:51;13.87;;;2.17;;
15082;SDS011;7640;53.116;6.878;2023-12-22T14:26:21;7.93;;;1.30;;
15082;SDS011;7640;53.116;6.878;2023-12-22T14:28:51;8.03;;;1.60;;
15082;SDS011;7640;53.116;6.878;2023-12-22T14:31:22;4.57;;;1.03;;
15082;SDS011;7640;53.116;6.878;2023-12-22T14:33:52;4.93;;;1.37;;
15082;SDS011;7640;53.116;6.878;2023-12-22T14:36:25;5.33;;;1.27;;
15082;SDS011;7640;53.116;6.878;2023-12-22T14:39:08;5.70;;;1.50;;
15082;SDS011;7640;53.116;6.878;2023-12-22T14:41:39;5.27;;;1.67;;
15082;SDS011;7640;53.116;6.878;2023-12-22T14:44:09;6.33;;;2.03;;
15082;SDS011;7640;53.116;6.878;2023-12-22T14:46:40;6.87;;;1.70;;
15082;SDS011;7640;53.116;6.878;2023-12-22T14:49:09;11.87;;;5.47;;
15082;SDS011;7640;53.116;6.878;2023-12-22T14:51:40;5.07;;;2.10;;
15082;SDS011;7640;53.116;6.878;2023-12-22T14:54:11;5.83;;;1.70;;
15082;SDS011;7640;53.116;6.878;2023-12-22T14:56:41;7.47;;;1.87;;
15082;SDS011;7640;53.116;6.878;2023-12-22T14:59:18;4.57;;;1.60;;
15082;SDS011;7640;53.116;6.878;2023-12-22T15:01:50;7.27;;;1.67;;
15082;SDS011;7640;53.116;6.878;2023-12-22T15:04:20;7.57;;;1.60;;
15082;SDS011;7640;53.116;6.878;2023-12-22T15:06:51;8.67;;;1.93;;
15082;SDS011;7640;53.116;6.878;2023-12-22T15:09:29;8.20;;;1.50;;
15082;SDS011;7640;53.116;6.878;2023-12-22T15:12:02;6.47;;;1.90;;
15082;SDS011;7640;53.116;6.878;2023-12-22T15:14:36;9.33;;;1.60;;
15082;SDS011;7640;53.116;6.878;2023-12-22T15:17:08;6.37;;;2.03;;
15082;SDS011;7640;53.116;6.878;2023-12-22T15:19:39;8.03;;;1.60;;
15082;SDS011;7640;53.116;6.878;2023-12-22T15:22:12;7.53;;;1.70;;
15082;SDS011;7640;53.116;6.878;2023-12-22T15:24:44;8.80;;;2.00;;
15082;SDS011;7640;53.116;6.878;2023-12-22T15:27:14;8.23;;;2.10;;
15082;SDS011;7640;53.116;6.878;2023-12-22T15:29:45;10.07;;;1.70;;
15082;SDS011;7640;53.116;6.878;2023-12-22T15:32:16;11.83;;;1.83;;